sensor_id;sensor_type;location;lat;lon;timestamp;temperature;humidity
24814;DHT22;12904;50.088;11.414;2023-06-22T00:01:50;18.10;99.90
24814;DHT22;12904;50.088;11.414;2023-06-22T00:04:16;18.10;99.90
24814;DHT22;12904;50.088;11.414;2023-06-22T00:06:41;18.10;99.90
24814;DHT22;12904;50.088;11.414;2023-06-22T00:09:07;18.10;99.90
24814;DHT22;12904;50.088;11.414;2023-06-22T00:11:33;18.10;99.90
24814;DHT22;12904;50.088;11.414;2023-06-22T00:13:59;18.10;99.90
24814;DHT22;12904;50.088;11.414;2023-06-22T00:16:25;18.00;99.90
24814;DHT22;12904;50.088;11.414;2023-06-22T00:18:51;17.90;99.90
24814;DHT22;12904;50.088;11.414;2023-06-22T00:21:16;17.80;99.90
24814;DHT22;12904;50.088;11.414;2023-06-22T00:23:42;17.70;99.90
24814;DHT22;12904;50.088;11.414;2023-06-22T00:26:08;17.70;99.90
24814;DHT22;12904;50.088;11.414;2023-06-22T00:28:34;17.50;99.90
24814;DHT22;12904;50.088;11.414;2023-06-22T00:30:59;17.40;99.90
24814;DHT22;12904;50.088;11.414;2023-06-22T00:33:26;17.40;99.90
24814;DHT22;12904;50.088;11.414;2023-06-22T00:35:52;17.30;99.90
24814;DHT22;12904;50.088;11.414;2023-06-22T00:38:20;17.30;99.90
24814;DHT22;12904;50.088;11.414;2023-06-22T00:40:46;17.30;99.90
24814;DHT22;12904;50.088;11.414;2023-06-22T00:43:11;17.30;99.90
24814;DHT22;12904;50.088;11.414;2023-06-22T00:45:38;17.30;99.90
24814;DHT22;12904;50.088;11.414;2023-06-22T00:48:03;17.30;99.90
24814;DHT22;12904;50.088;11.414;2023-06-22T00:50:32;17.20;99.90
24814;DHT22;12904;50.088;11.414;2023-06-22T00:53:08;17.10;99.90
24814;DHT22;12904;50.088;11.414;2023-06-22T00:55:41;17.00;99.90
24814;DHT22;12904;50.088;11.414;2023-06-22T00:58:09;16.90;99.90
24814;DHT22;12904;50.088;11.414;2023-06-22T01:00:36;16.90;99.90
24814;DHT22;12904;50.088;11.414;2023-06-22T01:03:03;16.90;99.90
24814;DHT22;12904;50.088;11.414;2023-06-22T01:05:29;16.90;99.90
24814;DHT22;12904;50.088;11.414;2023-06-22T01:13:29;17.10;99.90
24814;DHT22;12904;50.088;11.414;2023-06-22T01:16:10;17.10;99.90
24814;DHT22;12904;50.088;11.414;2023-06-22T01:18:41;17.10;99.90
24814;DHT22;12904;50.088;11.414;2023-06-22T01:21:09;17.20;99.90
24814;DHT22;12904;50.088;11.414;2023-06-22T01:26:18;17.20;99.90
24814;DHT22;12904;50.088;11.414;2023-06-22T01:28:49;17.20;99.90
24814;DHT22;12904;50.088;11.414;2023-06-22T01:31:21;17.30;99.90
24814;DHT22;12904;50.088;11.414;2023-06-22T01:33:51;17.30;99.90
24814;DHT22;12904;50.088;11.414;2023-06-22T01:36:19;17.30;99.90
24814;DHT22;12904;50.088;11.414;2023-06-22T01:38:45;17.30;99.90
24814;DHT22;12904;50.088;11.414;2023-06-22T01:41:12;17.30;99.90
24814;DHT22;12904;50.088;11.414;2023-06-22T01:43:38;17.30;99.90
24814;DHT22;12904;50.088;11.414;2023-06-22T01:46:05;17.20;99.90
24814;DHT22;12904;50.088;11.414;2023-06-22T01:48:31;17.20;99.90
24814;DHT22;12904;50.088;11.414;2023-06-22T01:50:57;17.20;99.90
24814;DHT22;12904;50.088;11.414;2023-06-22T01:53:23;17.20;99.90
24814;DHT22;12904;50.088;11.414;2023-06-22T01:55:49;17.20;99.90
24814;DHT22;12904;50.088;11.414;2023-06-22T01:58:15;17.20;99.90
24814;DHT22;12904;50.088;11.414;2023-06-22T02:00:45;17.20;99.90
24814;DHT22;12904;50.088;11.414;2023-06-22T02:03:17;17.20;99.90
24814;DHT22;12904;50.088;11.414;2023-06-22T02:05:54;17.20;99.90
24814;DHT22;12904;50.088;11.414;2023-06-22T02:08:23;17.20;99.90
24814;DHT22;12904;50.088;11.414;2023-06-22T02:10:51;17.20;99.90
24814;DHT22;12904;50.088;11.414;2023-06-22T02:13:17;17.10;99.90
24814;DHT22;12904;50.088;11.414;2023-06-22T02:15:43;17.10;99.90
24814;DHT22;12904;50.088;11.414;2023-06-22T02:18:09;17.20;99.90
24814;DHT22;12904;50.088;11.414;2023-06-22T02:20:38;17.10;99.90
24814;DHT22;12904;50.088;11.414;2023-06-22T02:23:05;17.10;99.90
24814;DHT22;12904;50.088;11.414;2023-06-22T02:25:32;17.00;99.90
24814;DHT22;12904;50.088;11.414;2023-06-22T02:27:57;17.00;99.90
24814;DHT22;12904;50.088;11.414;2023-06-22T02:30:23;16.90;99.90
24814;DHT22;12904;50.088;11.414;2023-06-22T02:32:49;16.90;99.90
24814;DHT22;12904;50.088;11.414;2023-06-22T02:35:17;16.80;99.90
24814;DHT22;12904;50.088;11.414;2023-06-22T02:37:42;16.80;99.90
24814;DHT22;12904;50.088;11.414;2023-06-22T02:40:08;16.80;99.90
24814;DHT22;12904;50.088;11.414;2023-06-22T02:42:35;16.80;99.90
24814;DHT22;12904;50.088;11.414;2023-06-22T02:45:01;16.80;99.90
24814;DHT22;12904;50.088;11.414;2023-06-22T02:47:26;16.80;99.90
24814;DHT22;12904;50.088;11.414;2023-06-22T02:49:52;16.80;99.90
24814;DHT22;12904;50.088;11.414;2023-06-22T02:52:18;16.80;99.90
24814;DHT22;12904;50.088;11.414;2023-06-22T02:54:43;16.80;99.90
24814;DHT22;12904;50.088;11.414;2023-06-22T02:57:11;16.70;99.90
24814;DHT22;12904;50.088;11.414;2023-06-22T02:59:40;16.60;99.90
24814;DHT22;12904;50.088;11.414;2023-06-22T03:02:07;16.50;99.90
24814;DHT22;12904;50.088;11.414;2023-06-22T03:04:33;16.40;99.90
24814;DHT22;12904;50.088;11.414;2023-06-22T03:06:59;16.40;99.90
24814;DHT22;12904;50.088;11.414;2023-06-22T03:09:27;16.40;99.90
24814;DHT22;12904;50.088;11.414;2023-06-22T03:11:54;16.50;99.90
24814;DHT22;12904;50.088;11.414;2023-06-22T03:14:20;16.60;99.90
24814;DHT22;12904;50.088;11.414;2023-06-22T03:16:45;16.70;99.90
24814;DHT22;12904;50.088;11.414;2023-06-22T03:19:11;16.90;99.90
24814;DHT22;12904;50.088;11.414;2023-06-22T03:21:37;16.90;99.90
24814;DHT22;12904;50.088;11.414;2023-06-22T03:24:07;17.00;99.90
24814;DHT22;12904;50.088;11.414;2023-06-22T03:26:33;17.20;99.90
24814;DHT22;12904;50.088;11.414;2023-06-22T03:28:59;17.30;99.90
24814;DHT22;12904;50.088;11.414;2023-06-22T03:31:25;17.40;99.90
24814;DHT22;12904;50.088;11.414;2023-06-22T03:33:51;17.50;99.90
24814;DHT22;12904;50.088;11.414;2023-06-22T03:36:18;17.60;99.90
24814;DHT22;12904;50.088;11.414;2023-06-22T03:38:48;17.70;99.90
24814;DHT22;12904;50.088;11.414;2023-06-22T03:41:14;17.90;99.90
24814;DHT22;12904;50.088;11.414;2023-06-22T03:43:40;18.00;99.90
24814;DHT22;12904;50.088;11.414;2023-06-22T03:46:05;18.10;99.90
24814;DHT22;12904;50.088;11.414;2023-06-22T03:48:31;18.10;99.90
24814;DHT22;12904;50.088;11.414;2023-06-22T03:50:58;18.20;99.90
24814;DHT22;12904;50.088;11.414;2023-06-22T03:53:24;18.10;99.90
24814;DHT22;12904;50.088;11.414;2023-06-22T03:55:50;18.10;99.90
24814;DHT22;12904;50.088;11.414;2023-06-22T03:58:18;18.10;99.90
24814;DHT22;12904;50.088;11.414;2023-06-22T04:00:48;18.10;99.90
24814;DHT22;12904;50.088;11.414;2023-06-22T04:03:15;18.10;99.90
24814;DHT22;12904;50.088;11.414;2023-06-22T04:05:41;18.20;99.90
24814;DHT22;12904;50.088;11.414;2023-06-22T04:08:07;18.20;99.90
24814;DHT22;12904;50.088;11.414;2023-06-22T04:10:33;18.20;99.90
24814;DHT22;12904;50.088;11.414;2023-06-22T04:13:00;18.20;99.90
24814;DHT22;12904;50.088;11.414;2023-06-22T04:15:25;18.20;99.90
24814;DHT22;12904;50.088;11.414;2023-06-22T04:17:51;18.20;99.90
24814;DHT22;12904;50.088;11.414;2023-06-22T04:20:17;18.20;99.90
24814;DHT22;12904;50.088;11.414;2023-06-22T04:22:42;18.10;99.90
24814;DHT22;12904;50.088;11.414;2023-06-22T04:25:08;18.00;99.90
24814;DHT22;12904;50.088;11.414;2023-06-22T04:27:34;18.00;99.90
24814;DHT22;12904;50.088;11.414;2023-06-22T04:30:07;18.10;99.90
24814;DHT22;12904;50.088;11.414;2023-06-22T04:32:33;18.10;99.90
24814;DHT22;12904;50.088;11.414;2023-06-22T04:35:01;18.10;99.90
24814;DHT22;12904;50.088;11.414;2023-06-22T04:37:27;18.20;99.90
24814;DHT22;12904;50.088;11.414;2023-06-22T04:39:53;18.30;99.90
24814;DHT22;12904;50.088;11.414;2023-06-22T04:42:18;18.30;99.90
24814;DHT22;12904;50.088;11.414;2023-06-22T04:44:44;18.40;99.90
24814;DHT22;12904;50.088;11.414;2023-06-22T04:47:09;18.50;99.90
24814;DHT22;12904;50.088;11.414;2023-06-22T04:49:36;18.50;99.90
24814;DHT22;12904;50.088;11.414;2023-06-22T04:52:04;18.60;99.90
24814;DHT22;12904;50.088;11.414;2023-06-22T04:54:30;18.70;99.90
24814;DHT22;12904;50.088;11.414;2023-06-22T04:57:00;18.70;99.90
24814;DHT22;12904;50.088;11.414;2023-06-22T04:59:28;18.70;99.90
24814;DHT22;12904;50.088;11.414;2023-06-22T05:01:59;18.70;99.90
24814;DHT22;12904;50.088;11.414;2023-06-22T05:04:26;18.70;99.90
24814;DHT22;12904;50.088;11.414;2023-06-22T05:06:53;18.80;99.90
24814;DHT22;12904;50.088;11.414;2023-06-22T05:09:20;18.80;99.90
24814;DHT22;12904;50.088;11.414;2023-06-22T05:11:46;18.80;99.90
24814;DHT22;12904;50.088;11.414;2023-06-22T05:14:12;18.80;99.90
24814;DHT22;12904;50.088;11.414;2023-06-22T05:16:38;18.80;99.90
24814;DHT22;12904;50.088;11.414;2023-06-22T05:19:04;18.90;99.90
24814;DHT22;12904;50.088;11.414;2023-06-22T05:21:30;18.90;99.90
24814;DHT22;12904;50.088;11.414;2023-06-22T05:23:57;19.00;99.90
24814;DHT22;12904;50.088;11.414;2023-06-22T05:26:31;19.10;99.90
24814;DHT22;12904;50.088;11.414;2023-06-22T05:28:58;19.20;99.90
24814;DHT22;12904;50.088;11.414;2023-06-22T05:31:24;19.30;99.90
24814;DHT22;12904;50.088;11.414;2023-06-22T05:33:51;19.50;99.90
24814;DHT22;12904;50.088;11.414;2023-06-22T05:36:18;19.60;99.90
24814;DHT22;12904;50.088;11.414;2023-06-22T05:38:47;19.70;99.90
24814;DHT22;12904;50.088;11.414;2023-06-22T05:41:13;19.80;99.90
24814;DHT22;12904;50.088;11.414;2023-06-22T05:43:39;19.90;99.90
24814;DHT22;12904;50.088;11.414;2023-06-22T05:46:05;19.90;99.90
24814;DHT22;12904;50.088;11.414;2023-06-22T05:48:31;20.00;99.90
24814;DHT22;12904;50.088;11.414;2023-06-22T05:50:57;20.00;99.90
24814;DHT22;12904;50.088;11.414;2023-06-22T05:53:22;20.10;99.90
24814;DHT22;12904;50.088;11.414;2023-06-22T05:55:48;20.10;99.90
24814;DHT22;12904;50.088;11.414;2023-06-22T05:58:14;20.20;99.90
24814;DHT22;12904;50.088;11.414;2023-06-22T06:00:40;20.30;99.90
24814;DHT22;12904;50.088;11.414;2023-06-22T06:03:07;20.30;99.90
24814;DHT22;12904;50.088;11.414;2023-06-22T06:05:34;20.40;99.90
24814;DHT22;12904;50.088;11.414;2023-06-22T06:08:01;20.40;99.90
24814;DHT22;12904;50.088;11.414;2023-06-22T06:10:27;20.50;99.90
24814;DHT22;12904;50.088;11.414;2023-06-22T06:12:55;20.60;99.90
24814;DHT22;12904;50.088;11.414;2023-06-22T06:15:20;20.70;99.90
24814;DHT22;12904;50.088;11.414;2023-06-22T06:17:50;20.80;99.90
24814;DHT22;12904;50.088;11.414;2023-06-22T06:20:18;20.80;99.90
24814;DHT22;12904;50.088;11.414;2023-06-22T06:22:44;20.90;99.90
24814;DHT22;12904;50.088;11.414;2023-06-22T06:25:10;21.00;99.90
24814;DHT22;12904;50.088;11.414;2023-06-22T06:27:45;21.10;99.90
24814;DHT22;12904;50.088;11.414;2023-06-22T06:30:12;21.10;99.90
24814;DHT22;12904;50.088;11.414;2023-06-22T06:32:38;21.20;99.90
24814;DHT22;12904;50.088;11.414;2023-06-22T06:35:08;21.20;99.90
24814;DHT22;12904;50.088;11.414;2023-06-22T06:37:40;21.30;99.90
24814;DHT22;12904;50.088;11.414;2023-06-22T06:40:07;21.40;99.90
24814;DHT22;12904;50.088;11.414;2023-06-22T06:42:40;21.50;99.90
24814;DHT22;12904;50.088;11.414;2023-06-22T06:45:10;21.60;99.90
24814;DHT22;12904;50.088;11.414;2023-06-22T06:47:36;21.60;99.90
24814;DHT22;12904;50.088;11.414;2023-06-22T06:50:02;21.70;99.90
24814;DHT22;12904;50.088;11.414;2023-06-22T06:52:28;21.80;99.90
24814;DHT22;12904;50.088;11.414;2023-06-22T06:54:53;21.90;99.90
24814;DHT22;12904;50.088;11.414;2023-06-22T06:57:19;22.00;99.90
24814;DHT22;12904;50.088;11.414;2023-06-22T06:59:45;22.10;99.90
24814;DHT22;12904;50.088;11.414;2023-06-22T07:02:11;22.10;99.90
24814;DHT22;12904;50.088;11.414;2023-06-22T07:04:37;22.20;99.90
24814;DHT22;12904;50.088;11.414;2023-06-22T07:07:02;22.30;99.90
24814;DHT22;12904;50.088;11.414;2023-06-22T07:09:28;22.50;99.90
24814;DHT22;12904;50.088;11.414;2023-06-22T07:11:54;22.60;99.90
24814;DHT22;12904;50.088;11.414;2023-06-22T07:14:19;22.70;99.90
24814;DHT22;12904;50.088;11.414;2023-06-22T07:16:45;22.80;99.90
24814;DHT22;12904;50.088;11.414;2023-06-22T07:19:12;22.90;99.90
24814;DHT22;12904;50.088;11.414;2023-06-22T07:21:38;23.00;99.90
24814;DHT22;12904;50.088;11.414;2023-06-22T07:24:05;23.20;99.90
24814;DHT22;12904;50.088;11.414;2023-06-22T07:26:31;23.30;99.90
24814;DHT22;12904;50.088;11.414;2023-06-22T07:28:57;23.40;99.90
24814;DHT22;12904;50.088;11.414;2023-06-22T07:31:24;23.40;99.90
24814;DHT22;12904;50.088;11.414;2023-06-22T07:33:50;23.60;99.90
24814;DHT22;12904;50.088;11.414;2023-06-22T07:36:17;23.60;99.90
24814;DHT22;12904;50.088;11.414;2023-06-22T07:38:43;23.80;99.90
24814;DHT22;12904;50.088;11.414;2023-06-22T07:41:09;23.90;99.90
24814;DHT22;12904;50.088;11.414;2023-06-22T07:43:34;24.10;99.90
24814;DHT22;12904;50.088;11.414;2023-06-22T07:46:03;24.10;99.90
24814;DHT22;12904;50.088;11.414;2023-06-22T07:48:29;24.20;99.90
24814;DHT22;12904;50.088;11.414;2023-06-22T07:50:55;24.30;99.90
24814;DHT22;12904;50.088;11.414;2023-06-22T07:53:21;24.50;99.90
24814;DHT22;12904;50.088;11.414;2023-06-22T07:55:48;24.50;99.90
24814;DHT22;12904;50.088;11.414;2023-06-22T07:58:14;24.60;99.90
24814;DHT22;12904;50.088;11.414;2023-06-22T08:00:41;24.80;99.90
24814;DHT22;12904;50.088;11.414;2023-06-22T08:03:06;24.80;99.90
24814;DHT22;12904;50.088;11.414;2023-06-22T08:05:32;25.00;99.90
24814;DHT22;12904;50.088;11.414;2023-06-22T08:07:58;25.10;99.90
24814;DHT22;12904;50.088;11.414;2023-06-22T08:10:24;25.20;99.90
24814;DHT22;12904;50.088;11.414;2023-06-22T08:12:50;25.40;99.90
24814;DHT22;12904;50.088;11.414;2023-06-22T08:15:17;25.50;99.90
24814;DHT22;12904;50.088;11.414;2023-06-22T08:17:44;25.70;99.90
24814;DHT22;12904;50.088;11.414;2023-06-22T08:20:11;25.80;99.90
24814;DHT22;12904;50.088;11.414;2023-06-22T08:22:37;26.00;99.90
24814;DHT22;12904;50.088;11.414;2023-06-22T08:25:03;26.10;99.90
24814;DHT22;12904;50.088;11.414;2023-06-22T08:27:30;26.20;99.90
24814;DHT22;12904;50.088;11.414;2023-06-22T08:29:59;26.30;99.90
24814;DHT22;12904;50.088;11.414;2023-06-22T08:32:27;26.50;99.90
24814;DHT22;12904;50.088;11.414;2023-06-22T08:34:56;26.60;99.90
24814;DHT22;12904;50.088;11.414;2023-06-22T08:37:22;26.70;99.90
24814;DHT22;12904;50.088;11.414;2023-06-22T08:39:56;26.80;99.90
24814;DHT22;12904;50.088;11.414;2023-06-22T08:42:22;26.90;99.90
24814;DHT22;12904;50.088;11.414;2023-06-22T08:44:48;27.00;99.90
24814;DHT22;12904;50.088;11.414;2023-06-22T08:47:14;27.00;99.90
24814;DHT22;12904;50.088;11.414;2023-06-22T08:49:39;27.10;99.90
24814;DHT22;12904;50.088;11.414;2023-06-22T08:52:05;27.30;99.90
24814;DHT22;12904;50.088;11.414;2023-06-22T08:54:31;27.40;99.90
24814;DHT22;12904;50.088;11.414;2023-06-22T08:56:58;27.50;99.90
24814;DHT22;12904;50.088;11.414;2023-06-22T08:59:24;27.60;99.90
24814;DHT22;12904;50.088;11.414;2023-06-22T09:01:49;27.70;99.90
24814;DHT22;12904;50.088;11.414;2023-06-22T09:04:15;27.80;99.90
24814;DHT22;12904;50.088;11.414;2023-06-22T09:06:40;27.80;99.90
24814;DHT22;12904;50.088;11.414;2023-06-22T09:09:11;27.80;99.90
24814;DHT22;12904;50.088;11.414;2023-06-22T09:11:37;27.90;99.90
24814;DHT22;12904;50.088;11.414;2023-06-22T09:14:03;28.00;99.90
24814;DHT22;12904;50.088;11.414;2023-06-22T09:16:29;28.20;99.90
24814;DHT22;12904;50.088;11.414;2023-06-22T09:18:55;28.40;99.90
24814;DHT22;12904;50.088;11.414;2023-06-22T09:21:21;28.50;99.90
24814;DHT22;12904;50.088;11.414;2023-06-22T09:23:47;28.70;99.90
24814;DHT22;12904;50.088;11.414;2023-06-22T09:26:17;28.80;99.90
24814;DHT22;12904;50.088;11.414;2023-06-22T09:28:42;28.80;95.30
24814;DHT22;12904;50.088;11.414;2023-06-22T09:31:08;28.80;91.40
24814;DHT22;12904;50.088;11.414;2023-06-22T09:33:33;28.90;98.10
24814;DHT22;12904;50.088;11.414;2023-06-22T09:35:59;29.00;86.60
24814;DHT22;12904;50.088;11.414;2023-06-22T09:38:25;29.20;91.40
24814;DHT22;12904;50.088;11.414;2023-06-22T09:40:50;29.30;99.90
24814;DHT22;12904;50.088;11.414;2023-06-22T09:43:16;29.30;80.90
24814;DHT22;12904;50.088;11.414;2023-06-22T09:45:42;29.40;83.50
24814;DHT22;12904;50.088;11.414;2023-06-22T09:48:08;29.50;83.50
24814;DHT22;12904;50.088;11.414;2023-06-22T09:50:35;29.70;97.70
24814;DHT22;12904;50.088;11.414;2023-06-22T09:53:01;29.80;82.70
24814;DHT22;12904;50.088;11.414;2023-06-22T09:55:27;30.10;94.00
24814;DHT22;12904;50.088;11.414;2023-06-22T09:57:52;30.30;75.20
24814;DHT22;12904;50.088;11.414;2023-06-22T10:00:18;30.50;71.40
24814;DHT22;12904;50.088;11.414;2023-06-22T10:02:44;30.60;79.40
24814;DHT22;12904;50.088;11.414;2023-06-22T10:05:10;30.70;81.50
24814;DHT22;12904;50.088;11.414;2023-06-22T10:07:36;30.80;72.10
24814;DHT22;12904;50.088;11.414;2023-06-22T10:10:06;30.80;70.80
24814;DHT22;12904;50.088;11.414;2023-06-22T10:12:32;30.90;72.70
24814;DHT22;12904;50.088;11.414;2023-06-22T10:14:57;31.10;70.40
24814;DHT22;12904;50.088;11.414;2023-06-22T10:17:23;31.10;64.60
24814;DHT22;12904;50.088;11.414;2023-06-22T10:19:48;31.10;64.70
24814;DHT22;12904;50.088;11.414;2023-06-22T10:22:14;31.10;68.00
24814;DHT22;12904;50.088;11.414;2023-06-22T10:24:40;30.90;66.40
24814;DHT22;12904;50.088;11.414;2023-06-22T10:27:10;31.00;69.60
24814;DHT22;12904;50.088;11.414;2023-06-22T10:29:37;30.90;64.20
24814;DHT22;12904;50.088;11.414;2023-06-22T10:32:03;31.10;67.00
24814;DHT22;12904;50.088;11.414;2023-06-22T10:34:29;31.10;62.80
24814;DHT22;12904;50.088;11.414;2023-06-22T10:36:55;30.90;64.60
24814;DHT22;12904;50.088;11.414;2023-06-22T10:39:20;30.90;69.40
24814;DHT22;12904;50.088;11.414;2023-06-22T10:41:46;31.00;64.50
24814;DHT22;12904;50.088;11.414;2023-06-22T10:44:12;30.90;64.20
24814;DHT22;12904;50.088;11.414;2023-06-22T10:46:38;30.90;66.50
24814;DHT22;12904;50.088;11.414;2023-06-22T10:49:03;30.90;63.50
24814;DHT22;12904;50.088;11.414;2023-06-22T10:51:29;30.90;65.60
24814;DHT22;12904;50.088;11.414;2023-06-22T10:53:56;31.10;70.00
24814;DHT22;12904;50.088;11.414;2023-06-22T10:56:22;31.20;66.20
24814;DHT22;12904;50.088;11.414;2023-06-22T10:58:47;31.30;66.40
24814;DHT22;12904;50.088;11.414;2023-06-22T11:01:13;31.30;62.70
24814;DHT22;12904;50.088;11.414;2023-06-22T11:03:39;31.40;67.20
24814;DHT22;12904;50.088;11.414;2023-06-22T11:06:05;31.50;63.00
24814;DHT22;12904;50.088;11.414;2023-06-22T11:08:30;31.50;63.00
24814;DHT22;12904;50.088;11.414;2023-06-22T11:10:56;31.60;65.00
24814;DHT22;12904;50.088;11.414;2023-06-22T11:13:21;31.70;61.20
24814;DHT22;12904;50.088;11.414;2023-06-22T11:15:47;31.90;63.80
24814;DHT22;12904;50.088;11.414;2023-06-22T11:18:13;32.00;61.70
24814;DHT22;12904;50.088;11.414;2023-06-22T11:20:38;31.90;59.20
24814;DHT22;12904;50.088;11.414;2023-06-22T11:23:05;31.80;61.60
24814;DHT22;12904;50.088;11.414;2023-06-22T11:25:34;31.80;62.90
24814;DHT22;12904;50.088;11.414;2023-06-22T11:28:04;32.00;62.30
24814;DHT22;12904;50.088;11.414;2023-06-22T11:30:30;32.00;59.70
24814;DHT22;12904;50.088;11.414;2023-06-22T11:32:58;32.10;61.80
24814;DHT22;12904;50.088;11.414;2023-06-22T11:35:24;32.10;58.00
24814;DHT22;12904;50.088;11.414;2023-06-22T11:37:49;32.20;58.40
24814;DHT22;12904;50.088;11.414;2023-06-22T11:40:15;32.30;58.20
24814;DHT22;12904;50.088;11.414;2023-06-22T11:42:43;32.50;61.40
24814;DHT22;12904;50.088;11.414;2023-06-22T11:45:09;32.50;59.40
24814;DHT22;12904;50.088;11.414;2023-06-22T11:47:34;32.40;56.60
24814;DHT22;12904;50.088;11.414;2023-06-22T11:50:01;32.30;57.20
24814;DHT22;12904;50.088;11.414;2023-06-22T11:52:27;32.40;59.80
24814;DHT22;12904;50.088;11.414;2023-06-22T11:54:52;32.40;57.10
24814;DHT22;12904;50.088;11.414;2023-06-22T11:57:18;32.50;55.00
24814;DHT22;12904;50.088;11.414;2023-06-22T11:59:44;32.70;53.90
24814;DHT22;12904;50.088;11.414;2023-06-22T12:02:09;32.90;55.80
24814;DHT22;12904;50.088;11.414;2023-06-22T12:04:35;32.90;55.00
24814;DHT22;12904;50.088;11.414;2023-06-22T12:07:01;32.90;56.10
24814;DHT22;12904;50.088;11.414;2023-06-22T12:09:27;32.80;57.60
24814;DHT22;12904;50.088;11.414;2023-06-22T12:11:53;32.80;57.10
24814;DHT22;12904;50.088;11.414;2023-06-22T12:14:18;33.00;56.30
24814;DHT22;12904;50.088;11.414;2023-06-22T12:16:44;33.10;55.80
24814;DHT22;12904;50.088;11.414;2023-06-22T12:19:10;33.20;54.80
24814;DHT22;12904;50.088;11.414;2023-06-22T12:21:37;33.00;58.20
24814;DHT22;12904;50.088;11.414;2023-06-22T12:24:03;32.90;55.60
24814;DHT22;12904;50.088;11.414;2023-06-22T12:26:28;32.80;57.10
24814;DHT22;12904;50.088;11.414;2023-06-22T12:28:54;33.00;60.50
24814;DHT22;12904;50.088;11.414;2023-06-22T12:31:20;33.10;57.60
24814;DHT22;12904;50.088;11.414;2023-06-22T12:33:45;33.20;56.10
24814;DHT22;12904;50.088;11.414;2023-06-22T12:36:11;33.30;57.20
24814;DHT22;12904;50.088;11.414;2023-06-22T12:38:36;33.50;54.40
24814;DHT22;12904;50.088;11.414;2023-06-22T12:41:02;33.60;53.90
24814;DHT22;12904;50.088;11.414;2023-06-22T12:43:28;33.60;54.80
24814;DHT22;12904;50.088;11.414;2023-06-22T12:45:53;33.60;57.20
24814;DHT22;12904;50.088;11.414;2023-06-22T12:48:19;33.40;54.30
24814;DHT22;12904;50.088;11.414;2023-06-22T12:50:45;33.30;56.30
24814;DHT22;12904;50.088;11.414;2023-06-22T12:53:12;33.20;55.40
24814;DHT22;12904;50.088;11.414;2023-06-22T12:55:38;33.10;55.10
24814;DHT22;12904;50.088;11.414;2023-06-22T12:58:03;33.20;52.30
24814;DHT22;12904;50.088;11.414;2023-06-22T13:00:29;33.30;52.60
24814;DHT22;12904;50.088;11.414;2023-06-22T13:02:54;33.40;51.80
24814;DHT22;12904;50.088;11.414;2023-06-22T13:05:20;33.70;53.20
24814;DHT22;12904;50.088;11.414;2023-06-22T13:07:46;33.90;53.10
24814;DHT22;12904;50.088;11.414;2023-06-22T13:10:11;33.70;51.90
24814;DHT22;12904;50.088;11.414;2023-06-22T13:12:37;33.60;52.00
24814;DHT22;12904;50.088;11.414;2023-06-22T13:15:02;33.60;52.20
24814;DHT22;12904;50.088;11.414;2023-06-22T13:17:28;33.80;53.30
24814;DHT22;12904;50.088;11.414;2023-06-22T13:19:54;34.00;53.70
24814;DHT22;12904;50.088;11.414;2023-06-22T13:22:31;34.40;51.90
24814;DHT22;12904;50.088;11.414;2023-06-22T13:24:57;34.80;51.80
24814;DHT22;12904;50.088;11.414;2023-06-22T13:27:23;35.00;51.40
24814;DHT22;12904;50.088;11.414;2023-06-22T13:29:49;35.10;49.30
24814;DHT22;12904;50.088;11.414;2023-06-22T13:32:15;35.20;51.40
24814;DHT22;12904;50.088;11.414;2023-06-22T13:34:40;35.20;50.30
24814;DHT22;12904;50.088;11.414;2023-06-22T13:37:06;35.10;50.40
24814;DHT22;12904;50.088;11.414;2023-06-22T13:39:31;35.00;51.20
24814;DHT22;12904;50.088;11.414;2023-06-22T13:41:58;34.70;50.60
24814;DHT22;12904;50.088;11.414;2023-06-22T13:44:23;34.50;51.80
24814;DHT22;12904;50.088;11.414;2023-06-22T13:46:53;34.30;53.10
24814;DHT22;12904;50.088;11.414;2023-06-22T13:49:18;34.10;53.50
24814;DHT22;12904;50.088;11.414;2023-06-22T13:51:45;33.80;55.10
24814;DHT22;12904;50.088;11.414;2023-06-22T13:54:13;33.50;55.40
24814;DHT22;12904;50.088;11.414;2023-06-22T13:56:39;33.20;56.00
24814;DHT22;12904;50.088;11.414;2023-06-22T13:59:04;33.10;55.10
24814;DHT22;12904;50.088;11.414;2023-06-22T14:01:30;33.00;59.00
24814;DHT22;12904;50.088;11.414;2023-06-22T14:03:56;32.80;60.00
24814;DHT22;12904;50.088;11.414;2023-06-22T14:06:21;32.70;57.70
24814;DHT22;12904;50.088;11.414;2023-06-22T14:08:47;32.70;58.90
24814;DHT22;12904;50.088;11.414;2023-06-22T14:11:12;32.80;58.30
24814;DHT22;12904;50.088;11.414;2023-06-22T14:13:39;32.90;59.10
24814;DHT22;12904;50.088;11.414;2023-06-22T14:16:07;32.90;53.30
24814;DHT22;12904;50.088;11.414;2023-06-22T14:18:33;33.00;55.60
24814;DHT22;12904;50.088;11.414;2023-06-22T14:20:58;33.10;55.20
24814;DHT22;12904;50.088;11.414;2023-06-22T14:23:24;33.20;57.80
24814;DHT22;12904;50.088;11.414;2023-06-22T14:25:50;33.20;56.70
24814;DHT22;12904;50.088;11.414;2023-06-22T14:28:16;33.20;54.00
24814;DHT22;12904;50.088;11.414;2023-06-22T14:30:42;33.20;54.00
24814;DHT22;12904;50.088;11.414;2023-06-22T14:33:08;33.10;56.10
24814;DHT22;12904;50.088;11.414;2023-06-22T14:35:33;32.90;55.50
24814;DHT22;12904;50.088;11.414;2023-06-22T14:37:59;32.80;55.10
24814;DHT22;12904;50.088;11.414;2023-06-22T14:40:24;32.90;54.60
24814;DHT22;12904;50.088;11.414;2023-06-22T14:42:50;32.80;53.50
24814;DHT22;12904;50.088;11.414;2023-06-22T14:45:16;32.80;54.10
24814;DHT22;12904;50.088;11.414;2023-06-22T14:47:41;32.90;54.20
24814;DHT22;12904;50.088;11.414;2023-06-22T14:50:07;32.90;57.60
24814;DHT22;12904;50.088;11.414;2023-06-22T14:52:33;32.80;55.10
24814;DHT22;12904;50.088;11.414;2023-06-22T14:54:58;32.90;57.00
24814;DHT22;12904;50.088;11.414;2023-06-22T14:57:24;33.20;55.50
24814;DHT22;12904;50.088;11.414;2023-06-22T14:59:49;33.50;52.30
24814;DHT22;12904;50.088;11.414;2023-06-22T15:02:16;34.00;53.80
24814;DHT22;12904;50.088;11.414;2023-06-22T15:04:41;34.40;51.40
24814;DHT22;12904;50.088;11.414;2023-06-22T15:07:07;34.60;50.70
24814;DHT22;12904;50.088;11.414;2023-06-22T15:09:33;34.70;52.70
24814;DHT22;12904;50.088;11.414;2023-06-22T15:11:58;34.70;53.20
24814;DHT22;12904;50.088;11.414;2023-06-22T15:14:27;34.60;51.30
24814;DHT22;12904;50.088;11.414;2023-06-22T15:16:53;34.40;52.40
24814;DHT22;12904;50.088;11.414;2023-06-22T15:19:18;34.30;53.30